• Join FlightAware (Why Join?)
  • Login
  • US Flag 
03:19AM EDT


 

Airport Tracker/Info


-or-


 

Live Flight TrackerFlight Track Log ✈ N789EX ✈ 10-May-2014 ✈ KBFI - KMWH

Flight Track Log - Related Links

Times and Time Zones

All times are in EDT time to prevent confusion due to time zone crossing. See the N789EX flight status page for this flight to view local times or setup timezone preferences in your user account.

Time Position Orientation Groundspeed Altitude Reporting Facility
EDT Latitude Longitude Course Direction KTS MPH feet Rate Location/Type
01:18PM 47.5008 -122.2770 146° Southeast 180 207 1,700  Level FlightAware ADS-B
01:18PM 47.4949 -122.2710 146° Southeast 191 220 2,000 1,680 Climbing FlightAware ADS-B
01:18PM 47.4851 -122.2610 147° Southeast 212 244 2,300 1,500 Climbing FlightAware ADS-B
01:18PM 47.4723 -122.2490 148° Southeast 239 275 2,700 1,200 Climbing FlightAware ADS-B
01:18PM 47.4619 -122.2400 148° Southeast 254 292 2,800 300 Climbing FlightAware ADS-B
01:19PM 47.4537 -122.2320 147° Southeast 258 297 2,800  Level FlightAware ADS-B
01:19PM 47.4499 -122.2280 145° Southeast 259 298 2,800  Level FlightAware ADS-B
01:19PM 47.4468 -122.2250 143° Southeast 260 299 2,800  Level FlightAware ADS-B
01:19PM 47.4429 -122.2200 136° Southeast 261 300 2,800  Level FlightAware ADS-B
01:19PM 47.4405 -122.2150 130° Southeast 261 300 2,800  Level FlightAware ADS-B
01:19PM 47.4381 -122.2100 122° Southeast 262 302 2,800  Level FlightAware ADS-B
01:19PM 47.4362 -122.2050 116° Southeast 262 302 2,800  Level FlightAware ADS-B
01:19PM 47.4346 -122.1990 110° East 261 300 2,800  Level FlightAware ADS-B
01:19PM 47.4297 -122.1750 107° East 260 299 2,800 420 Level FlightAware ADS-B
01:19PM 47.4254 -122.1550 108° East 263 303 3,000 2,040 Climbing FlightAware ADS-B
01:20PM 47.4213 -122.1360 109° East 261 300 3,600 3,720 Climbing FlightAware ADS-B
01:20PM 47.4153 -122.1100 109° East 259 298 4,700 3,900 Climbing FlightAware ADS-B
01:20PM 47.4128 -122.0990 108° East 262 302 5,100 3,600 Climbing FlightAware ADS-B
01:20PM 47.4116 -122.0930 105° East 263 303 5,300 3,960 Climbing FlightAware ADS-B
01:20PM 47.4107 -122.0870 102° East 263 303 5,500 3,960 Climbing FlightAware ADS-B
01:20PM 47.4101 -122.0820 99° East 265 305 5,700 3,420 Climbing FlightAware ADS-B
01:20PM 47.4096 -122.0750 95° East 266 306 5,900 3,000 Climbing FlightAware ADS-B
01:20PM 47.4095 -122.0720 93° East 267 307 6,100 3,000 Climbing FlightAware ADS-B (KPAE)
01:20PM 47.4093 -122.0650 91° East 267 307 6,200 3,000 Climbing FlightAware ADS-B
01:20PM 47.4095 -122.0580 87° East 267 307 6,400 3,960 Climbing FlightAware ADS-B
01:21PM 47.4103 -122.0480 83° East 269 310 6,800 3,960 Climbing FlightAware ADS-B
01:21PM 47.4114 -122.0340 83° East 271 312 7,200 3,120 Climbing FlightAware ADS-B
01:21PM 47.4128 -122.0140 85° East 274 315 7,800 3,420 Climbing FlightAware ADS-B
01:21PM 47.4135 -122.0006 85° East 277 319 8,400 3,600 Climbing FlightAware ADS-B (KPAE)
01:21PM 47.4143 -121.9850 85° East 278 320 8,700 3,600 Climbing FlightAware ADS-B
01:21PM 47.4154 -121.9647 85° East 280 322 9,600 3,600 Climbing FlightAware ADS-B (KPAE)
01:21PM 47.4158 -121.9570 85° East 280 322 9,600 2,460 Level FlightAware ADS-B
01:22PM 47.4195 -121.8970 84° East 300 345 10,900 2,400 Climbing FlightAware ADS-B
01:22PM 47.4208 -121.8777 85° East 313 360 11,200 2,280 Climbing FlightAware ADS-B (KPAE)
01:22PM 47.4235 -121.8310 86° East 324 373 12,100 2,820 Climbing FlightAware ADS-B
01:23PM 47.4255 -121.7938 85° East 329 379 13,100 3,180 Climbing FlightAware ADS-B (KPAE)
01:23PM 47.4270 -121.7670 86° East 332 382 13,600 2,580 Climbing FlightAware ADS-B
01:23PM 47.4286 -121.7200 88° East 297 342 14,500 2,220 Climbing FlightAware ADS-B
01:23PM 47.4287 -121.7125 89° East 293 337 14,600 720 Climbing FlightAware ADS-B
01:24PM 47.4288 -121.6730 91° East 285 328 14,800 300 Climbing FlightAware ADS-B
01:24PM 47.4284 -121.6413 91° East 285 328 14,800  Level FlightAware ADS-B
01:24PM 47.4280 -121.6140 91° East 284 327 14,800  Level FlightAware ADS-B
01:24PM 47.4276 -121.5825 91° East 285 328 14,800  Level FlightAware ADS-B
01:25PM 47.4272 -121.5540 91° East 285 328 14,800  Level FlightAware ADS-B
01:25PM 47.4268 -121.5235 91° East 268 308 14,800  Level FlightAware ADS-B
01:25PM 47.4264 -121.4980 91° East 255 293 14,800  Level FlightAware ADS-B
01:25PM 47.4259 -121.4678 91° East 236 272 14,800  Level FlightAware ADS-B
01:26PM 47.4256 -121.4540 92° East 227 261 14,800  Level FlightAware ADS-B
01:26PM 47.4250 -121.4161 91° East 202 232 14,800  Level FlightAware ADS-B
01:26PM 47.4249 -121.4100 91° East 202 232 14,800 -720 Level FlightAware ADS-B
01:27PM 47.4244 -121.3680 91° East 200 230 14,400 -840 Descending FlightAware ADS-B
01:27PM 47.4243 -121.3622 91° East 201 231 14,300 -840 Descending FlightAware ADS-B
01:27PM 47.4237 -121.3270 91° East 195 224 14,000 -480 Descending FlightAware ADS-B
01:28PM 47.4231 -121.2950 92° East 168 193 13,900 -180 Descending FlightAware ADS-B
01:28PM 47.4229 -121.2860 92° East 158 182 13,900 -180 Level FlightAware ADS-B
01:28PM 47.4225 -121.2580 90° East 157 181 13,800  Descending FlightAware ADS-B
01:29PM 47.4221 -121.2250 91° East 153 176 13,900 120 Climbing FlightAware ADS-B
01:29PM 47.4220 -121.2206 92° East 153 176 13,900 -480 Level FlightAware ADS-B
01:29PM 47.4214 -121.1950 91° East 161 185 13,700 -600 Descending FlightAware ADS-B
01:29PM 47.4214 -121.1861 90° East 162 186 13,600 -240 Descending FlightAware ADS-B
01:30PM 47.4215 -121.1620 90° East 158 182 13,600  Level FlightAware ADS-B
01:30PM 47.4215 -121.1525 90° East 157 181 13,600 -240 Level FlightAware ADS-B
01:30PM 47.4216 -121.1290 89° East 159 183 13,500 -420 Descending FlightAware ADS-B
01:31PM 47.4223 -121.0983 88° East 159 183 13,300 -420 Descending FlightAware ADS-B
01:31PM 47.4223 -121.0960 88° East 159 183 13,300 -600 Level FlightAware ADS-B
01:31PM 47.4233 -121.0630 86° East 158 182 13,000 -300 Descending FlightAware ADS-B
01:32PM 47.4245 -121.0300 88° East 166 191 13,000 360 Level FlightAware ADS-B
01:32PM 47.4251 -120.9950 89° East 164 189 13,400 960 Climbing FlightAware ADS-B
01:33PM 47.4253 -120.9610 90° East 158 182 14,000 840 Climbing FlightAware ADS-B
01:33PM 47.4254 -120.9290 91° East 162 186 14,300 480 Climbing FlightAware ADS-B
01:33PM 47.4246 -120.9070 94° East 162 186 14,400  Climbing FlightAware ADS-B
01:34PM 47.4226 -120.8740 96° East 162 186 14,300 -120 Descending FlightAware ADS-B
01:34PM 47.4203 -120.8450 99° East 161 185 14,300 -360 Level FlightAware ADS-B
01:35PM 47.4150 -120.8120 104° East 164 189 14,000 -300 Descending FlightAware ADS-B
01:35PM 47.4108 -120.7790 102° East 161 185 14,000 -180 Level FlightAware ADS-B
01:36PM 47.4075 -120.7600 107° East 161 185 13,900 -600 Descending FlightAware ADS-B
01:36PM 47.4008 -120.7330 110° East 166 191 13,600 -480 Descending FlightAware ADS-B
01:37PM 47.3933 -120.7010 109° East 162 186 13,500 -240 Descending FlightAware ADS-B
01:37PM 47.3852 -120.6690 110° East 163 188 13,400 -120 Descending FlightAware ADS-B
01:38PM 47.3824 -120.6410 83° East 153 176 13,400  Level FlightAware ADS-B
01:38PM 47.3867 -120.5940 83° East 176 203 13,400 360 Level FlightAware ADS-B
01:39PM 47.3914 -120.5310 84° East 185 213 14,000  Climbing FlightAware ADS-B
01:40PM 47.3938 -120.4950 84° East 160 184 13,400 -1,200 Descending FlightAware ADS-B
01:41PM 47.3956 -120.4350 84° East 169 194 12,200 -660 Descending Seattle Center
01:42PM 47.3969 -120.3681 88° East 165 190 12,200 60 Level Seattle Center
01:43PM 47.3747 -120.3056 118° Southeast 178 205 12,400 240 Climbing Seattle Center
01:44PM 47.3753 -120.2319 89° East 170 196 12,700 240 Climbing Seattle Center
01:45PM 47.3719 -120.1611 94° East 171 197 13,000 180 Climbing Seattle Center
01:46PM 47.3761 -120.0700 86° East 236 272 13,100 480 Climbing Seattle Center
01:47PM 47.4239 -119.9975 46° Northeast 247 284 14,000 900 Climbing Seattle Center
01:48PM 47.4714 -119.9225 47° Northeast 253 291 15,000 480 Climbing Seattle Center
01:49PM 47.5256 -119.8425 45° Northeast 257 296 15,000  Level Seattle Center
01:50PM 47.5647 -119.7828 46° Northeast 204 235 15,000 -480 Level Seattle Center
01:51PM 47.5964 -119.7325 47° Northeast 171 197 14,100 -660 Descending Seattle Center
01:52PM 47.6294 -119.6808 46° Northeast 171 197 13,700 -600 Descending Seattle Center
01:53PM 47.6628 -119.6303 46° Northeast 171 197 13,000 -300 Descending Seattle Center
01:54PM 47.7000 -119.5656 49° Northeast 190 219 13,100 780 Climbing Seattle Center
01:55PM 47.7319 -119.5094 50° Northeast 179 206 14,600 1,320 Climbing Seattle Center
01:56PM 47.7625 -119.4581 48° Northeast 167 192 15,800 -180 Climbing Seattle Center
01:57PM 47.8000 -119.3942 49° Northeast 203 234 14,300 -1,380 Descending Seattle Center
01:58PM 47.8408 -119.3297 47° Northeast 213 245 13,100 -540 Descending Seattle Center
01:59PM 47.8811 -119.2700 45° Northeast 190 219 13,300 540 Climbing Seattle Center
02:00PM 47.9139 -119.2158 48° Northeast 177 204 14,300 720 Climbing Seattle Center
02:01PM 47.9458 -119.1683 45° Northeast 167 192 14,800 -180 Climbing Seattle Center
02:02PM 47.9797 -119.1136 47° Northeast 177 204 14,000 -420 Descending Seattle Center
02:03PM 47.9772 -119.0311 93° East 252 290 14,000 -420 Level Seattle Center
02:04PM 47.9042 -119.0694 199° South 284 327 13,200 -1,020 Descending Seattle Center
02:05PM 47.8325 -119.1200 205° Southwest 287 330 12,000 -1,260 Descending Seattle Center
02:06PM 47.7608 -119.1661 203° Southwest 282 325 10,700 -1,320 Descending Seattle Center
02:07PM 47.6911 -119.2136 205° Southwest 278 320 9,400 -1,380 Descending Seattle Center
02:08PM 47.6169 -119.2642 205° Southwest 276 318 7,900 -1,440 Descending Seattle Center
02:09PM 47.5483 -119.3167 207° Southwest 276 318 6,500 -1,200 Descending Seattle Center
02:10PM 47.4806 -119.3675 207° Southwest 275 316 5,500 -720 Descending Seattle Center
02:11PM 47.4206 -119.4131 207° Southwest 247 284 5,100 -780 Descending Seattle Center
02:12PM 47.3586 -119.3900 166° South 223 257 4,000 -1,140 Descending Seattle Center
02:13PM 47.3053 -119.3644 162° South 206 237 2,900 -960 Descending Seattle Center
02:14PM 47.2583 -119.3422 162° South 186 214 2,100 -840 Descending Seattle Center
02:15PM 47.2142 -119.3208 162° South 172 198 1,200 -900 Descending Seattle Center
02:17PM 47.2086 -119.3191 161° South  Level Estimated
02:24PM 47.2086 -119.3191 161° South  Level Estimated
02:25PM 47.2086 -119.3191 169° South  Level Estimated
02:26PM 47.2086 -119.3191 161° South  Level Estimated